Time;durP1;ratioP1;P1;durP2;ratioP2;P2;SDS_P1;SDS_P2;PMS_P1;PMS_P2;Temp;Humidity;BMP_temperature;BMP_pressure;BME280_temperature;BME280_humidity;BME280_pressure;Samples;Min_cycle;Max_cycle;Signal;HPM_P1;HPM_P2
2021/09/26 00:01:53;;;;;;;18.42;8.15;;;;;;;10.53;80.62;101567.23;1656475;86;21122;-83
2021/09/26 00:04:20;;;;;;;15.55;7.50;;;;;;;10.53;80.66;101570.78;1656373;86;22803;-83
2021/09/26 00:06:47;;;;;;;17.92;6.85;;;;;;;10.50;80.65;101571.54;1656209;84;21019;-82
2021/09/26 00:09:13;;;;;;;22.35;7.75;;;;;;;10.49;80.71;101576.34;1674758;84;21153;-83
2021/09/26 00:11:41;;;;;;;19.55;7.28;;;;;;;10.49;80.73;101580.30;1692560;84;21105;-83
2021/09/26 00:14:08;;;;;;;26.62;7.55;;;;;;;10.47;80.78;101581.05;1693061;83;21022;-83
2021/09/26 00:16:35;;;;;;;20.25;7.65;;;;;;;10.40;80.78;101576.37;1693087;84;21731;-83
2021/09/26 00:19:01;;;;;;;19.85;7.80;;;;;;;10.45;80.88;101584.05;1693022;83;21157;-83
2021/09/26 00:21:28;;;;;;;18.60;7.37;;;;;;;10.44;80.94;101586.22;1693121;84;21133;-82
2021/09/26 00:23:56;;;;;;;18.77;8.28;;;;;;;10.45;81.00;101590.63;1692920;84;21093;-82
2021/09/26 00:26:23;;;;;;;19.77;7.85;;;;;;;10.43;81.00;101593.62;1693061;83;21675;-82
2021/09/26 00:28:50;;;;;;;20.17;9.10;;;;;;;10.42;81.10;101595.79;1693161;83;21985;-82
2021/09/26 00:31:17;;;;;;;26.23;8.40;;;;;;;10.42;81.11;101596.67;1693086;84;21635;-83
2021/09/26 00:33:43;;;;;;;14.95;7.30;;;;;;;10.40;81.15;101593.09;1693139;84;21474;-83
2021/09/26 00:36:14;;;;;;;21.20;8.20;;;;;;;10.40;81.19;101592.17;1693001;84;21086;-82
2021/09/26 00:38:42;;;;;;;17.45;7.20;;;;;;;10.39;81.28;101599.61;1649515;83;21113;-82
2021/09/26 00:41:09;;;;;;;18.27;7.85;;;;;;;10.39;81.40;101595.66;1693021;84;21780;-82
2021/09/26 00:43:37;;;;;;;22.22;7.55;;;;;;;10.37;81.39;101601.28;1693112;83;21505;-82
2021/09/26 00:46:05;;;;;;;18.55;8.33;;;;;;;10.36;81.48;101606.97;1692946;83;21047;-83
2021/09/26 00:48:31;;;;;;;24.23;8.40;;;;;;;10.37;81.60;101611.38;1692988;84;21070;-82
2021/09/26 00:50:58;;;;;;;17.87;7.70;;;;;;;10.41;81.78;101609.77;1671296;84;21149;-83
2021/09/26 00:53:25;;;;;;;20.57;7.85;;;;;;;10.40;81.79;101604.94;1692948;84;22569;-82
2021/09/26 00:55:57;;;;;;;16.23;7.62;;;;;;;10.41;81.80;101609.77;1692435;84;21082;-83
2021/09/26 00:58:25;;;;;;;20.12;7.62;;;;;;;10.41;81.90;101612.41;1692070;84;21187;-82
2021/09/26 01:00:52;;;;;;;14.25;7.72;;;;;;;10.40;81.97;101619.41;1692567;83;21125;-82
2021/09/26 01:03:18;;;;;;;21.55;6.85;;;;;;;10.40;82.00;101618.09;1692562;83;21545;-82
2021/09/26 01:05:46;;;;;;;17.90;7.00;;;;;;;10.41;82.04;101615.92;1692397;83;22496;-82
2021/09/26 01:08:21;;;;;;;18.42;7.67;;;;;;;10.40;82.01;101620.73;1692436;83;21102;-82
2021/09/26 01:11:10;;;;;;;25.60;8.38;;;;;;;10.40;82.10;101621.13;1692139;83;21122;-82
2021/09/26 01:14:08;;;;;;;20.08;8.00;;;;;;;10.41;82.12;101624.25;1670196;83;21599;-82
2021/09/26 01:16:43;;;;;;;24.43;7.97;;;;;;;10.40;82.15;101619.80;1685906;83;21603;-82
2021/09/26 01:19:36;;;;;;;16.65;7.78;;;;;;;10.39;82.19;101619.34;1692669;84;21778;-82
2021/09/26 01:22:07;;;;;;;16.20;7.53;;;;;;;10.38;82.20;101626.35;1669364;84;21145;-82
2021/09/26 01:25:05;;;;;;;19.05;7.35;;;;;;;10.35;82.14;101618.75;1692170;83;21082;-82
2021/09/26 01:27:52;;;;;;;26.35;7.92;;;;;;;10.33;82.16;101615.16;1692640;83;21404;-82
2021/09/26 01:30:29;;;;;;;20.40;8.38;;;;;;;10.30;82.20;101615.52;1692732;84;21070;-82
2021/09/26 01:33:10;;;;;;;23.70;8.20;;;;;;;10.29;82.27;101614.99;1680443;83;22602;-82
2021/09/26 01:35:42;;;;;;;22.87;7.47;;;;;;;10.28;82.32;101619.77;1692352;83;21086;-82
2021/09/26 01:38:12;;;;;;;14.65;7.35;;;;;;;10.27;82.35;101614.04;1670992;84;21093;-82
2021/09/26 01:40:52;;;;;;;22.80;8.08;;;;;;;10.25;82.45;101620.09;1692816;84;21133;-82
2021/09/26 01:43:21;;;;;;;14.58;6.45;;;;;;;10.24;82.47;101619.59;1686012;83;21023;-82
2021/09/26 01:45:52;;;;;;;16.60;6.90;;;;;;;10.23;82.58;101623.05;1693017;83;21766;-82
2021/09/26 01:48:37;;;;;;;21.33;6.80;;;;;;;10.23;82.65;101623.97;1693042;83;21058;-82
2021/09/26 01:51:04;;;;;;;16.87;7.30;;;;;;;10.24;82.67;101627.06;1662213;83;21094;-82
2021/09/26 01:53:30;;;;;;;17.80;7.03;;;;;;;10.22;82.66;101625.22;1692725;83;21105;-82
2021/09/26 01:55:57;;;;;;;13.35;6.20;;;;;;;10.21;82.70;101628.67;1692859;84;21093;-85
2021/09/26 01:58:26;;;;;;;19.77;7.25;;;;;;;10.21;82.72;101629.59;1692916;83;21180;-86
2021/09/26 02:00:53;;;;;;;20.23;7.53;;;;;;;10.20;82.73;101627.78;1692486;83;21031;-84
2021/09/26 02:03:20;;;;;;;19.98;7.25;;;;;;;10.18;82.75;101627.25;1692714;84;21078;-84
2021/09/26 02:05:47;;;;;;;25.20;8.95;;;;;;;10.18;82.74;101637.77;1692552;83;21098;-84
2021/09/26 02:08:13;;;;;;;24.20;8.30;;;;;;;10.16;82.75;101641.65;1692589;84;21113;-84
2021/09/26 02:10:43;;;;;;;20.68;8.18;;;;;;;10.16;82.80;101646.02;1692576;84;21923;-85
2021/09/26 02:13:09;;;;;;;18.62;7.53;;;;;;;10.14;82.75;101647.27;1671158;84;21090;-85
2021/09/26 02:15:36;;;;;;;27.90;9.03;;;;;;;10.12;82.77;101645.89;1692692;83;21071;-85
2021/09/26 02:18:04;;;;;;;23.57;8.00;;;;;;;10.14;82.81;101647.27;1692787;83;21717;-84
2021/09/26 02:20:31;;;;;;;19.50;7.87;;;;;;;10.12;82.83;101648.94;1692780;84;21686;-85
2021/09/26 02:23:00;;;;;;;26.30;8.53;;;;;;;10.11;82.85;101651.97;1692590;83;21734;-86
2021/09/26 02:25:26;;;;;;;19.10;7.97;;;;;;;10.10;82.88;101653.25;1692993;84;21121;-84
2021/09/26 02:27:54;;;;;;;24.67;8.38;;;;;;;10.09;82.88;101658.90;1671190;84;21105;-84
2021/09/26 02:30:21;;;;;;;17.30;7.30;;;;;;;10.08;82.91;101658.44;1692777;83;21043;-84
2021/09/26 02:32:48;;;;;;;21.97;7.85;;;;;;;10.08;82.95;101654.92;1693395;84;21074;-84
2021/09/26 02:35:15;;;;;;;17.65;7.58;;;;;;;10.08;83.01;101660.18;1693583;84;21814;-85
2021/09/26 02:37:41;;;;;;;23.35;7.83;;;;;;;10.06;82.95;101667.08;1693589;83;21023;-85
2021/09/26 02:40:09;;;;;;;19.10;8.55;;;;;;;10.04;83.01;101667.05;1693648;84;21062;-85
2021/09/26 02:42:56;;;;;;;16.85;6.72;;;;;;;10.04;82.97;101668.75;1693561;84;21078;-85
2021/09/26 02:45:40;;;;;;;21.55;8.65;;;;;;;10.03;82.99;101669.17;1693810;84;21142;-85
2021/09/26 02:48:16;;;;;;;20.27;7.05;;;;;;;10.00;82.95;101665.52;1693632;84;21861;-84
2021/09/26 02:50:48;;;;;;;19.20;7.20;;;;;;;9.97;82.94;101675.50;1693601;84;21600;-85
2021/09/26 02:53:15;;;;;;;19.37;7.80;;;;;;;9.92;82.93;101671.34;1693530;84;21764;-85
2021/09/26 02:55:43;;;;;;;16.37;7.35;;;;;;;9.92;83.01;101672.66;1693794;84;21544;-86
2021/09/26 02:58:10;;;;;;;21.65;7.42;;;;;;;9.90;83.02;101673.02;1693820;84;21640;-86
2021/09/26 03:00:42;;;;;;;19.90;7.50;;;;;;;9.89;83.06;101675.18;1693716;83;21816;-85
2021/09/26 03:03:19;;;;;;;20.23;8.13;;;;;;;9.87;83.08;101678.17;1693703;84;21058;-85
2021/09/26 03:05:46;;;;;;;16.20;6.87;;;;;;;9.84;83.10;101674.08;1692785;84;21141;-85
2021/09/26 03:08:13;;;;;;;16.55;6.72;;;;;;;9.84;83.17;101679.34;1693469;84;21575;-85
2021/09/26 03:10:41;;;;;;;20.85;8.85;;;;;;;9.84;83.25;101679.77;1693231;83;21094;-84
2021/09/26 03:13:08;;;;;;;15.40;6.70;;;;;;;9.84;83.30;101685.02;1693459;84;21788;-85
2021/09/26 03:15:34;;;;;;;16.93;6.05;;;;;;;9.81;83.21;101686.19;1693199;84;21040;-85
2021/09/26 03:18:01;;;;;;;20.27;7.20;;;;;;;9.78;83.20;101690.91;1693434;84;21588;-85
2021/09/26 03:20:28;;;;;;;15.08;7.15;;;;;;;9.75;83.18;101690.77;1693290;84;21183;-84
2021/09/26 03:22:55;;;;;;;22.90;7.75;;;;;;;9.72;83.25;101686.29;1693387;84;21098;-85
2021/09/26 03:25:22;;;;;;;16.90;7.00;;;;;;;9.72;83.31;101698.52;1693381;84;21777;-84
2021/09/26 03:27:48;;;;;;;15.83;6.72;;;;;;;9.70;83.39;101698.86;1693095;84;21118;-84
2021/09/26 03:30:15;;;;;;;21.52;7.35;;;;;;;9.70;83.39;101704.13;1693244;84;21560;-84
2021/09/26 03:32:42;;;;;;;17.42;5.97;;;;;;;9.68;83.38;101697.91;1693162;83;21102;-84
2021/09/26 03:35:10;;;;;;;12.55;6.62;;;;;;;9.67;83.48;101697.02;1693371;84;21535;-84
2021/09/26 03:37:36;;;;;;;15.72;6.25;;;;;;;9.66;83.42;101706.14;1693067;84;21768;-83
2021/09/26 03:40:09;;;;;;;11.95;6.22;;;;;;;9.64;83.44;101696.86;1693069;83;21085;-86
2021/09/26 03:42:35;;;;;;;13.65;6.95;;;;;;;9.62;83.48;101695.02;1671834;84;21118;-84
2021/09/26 03:45:03;;;;;;;12.65;6.28;;;;;;;9.61;83.52;101695.44;1693081;84;21623;-86
2021/09/26 03:47:30;;;;;;;13.80;6.17;;;;;;;9.60;83.55;101703.25;1693591;84;21078;-84
2021/09/26 03:49:56;;;;;;;13.95;5.95;;;;;;;9.59;83.62;101706.69;1693505;84;21727;-83
2021/09/26 03:52:23;;;;;;;12.98;6.20;;;;;;;9.58;83.58;101705.80;1693167;84;21058;-86
2021/09/26 03:54:51;;;;;;;12.05;6.08;;;;;;;9.57;83.66;101708.36;1671756;84;21046;-83
2021/09/26 03:57:19;;;;;;;13.60;6.72;;;;;;;9.54;83.64;101704.77;1693319;84;21068;-83
2021/09/26 03:59:45;;;;;;;11.85;6.70;;;;;;;9.53;83.56;101715.20;1693622;84;21400;-84
2021/09/26 04:02:12;;;;;;;15.00;7.03;;;;;;;9.52;83.45;101716.05;1693552;84;21875;-84
2021/09/26 04:04:39;;;;;;;12.65;7.37;;;;;;;9.47;83.35;101711.00;1693563;84;21130;-84
2021/09/26 04:07:06;;;;;;;15.32;8.05;;;;;;;9.42;83.25;101714.75;1693386;84;21050;-84
2021/09/26 04:09:33;;;;;;;21.05;9.33;;;;;;;9.38;83.24;101718.05;1692886;84;21003;-85
2021/09/26 04:12:00;;;;;;;17.07;8.88;;;;;;;9.34;83.18;101722.25;1680507;85;21106;-85
2021/09/26 04:14:34;;;;;;;13.03;7.35;;;;;;;9.31;83.23;101727.39;1682839;85;21726;-85
2021/09/26 04:17:02;;;;;;;11.43;6.80;;;;;;;9.30;83.40;101721.64;1681368;85;21110;-86
2021/09/26 04:19:29;;;;;;;14.53;7.53;;;;;;;9.31;83.53;101724.77;1680242;84;21042;-85
2021/09/26 04:21:55;;;;;;;13.98;6.92;;;;;;;9.32;83.54;101740.99;1674978;84;21020;-84
2021/09/26 04:24:22;;;;;;;11.80;6.30;;;;;;;9.31;83.55;101726.50;1682747;84;21019;-84
2021/09/26 04:26:49;;;;;;;12.53;6.85;;;;;;;9.31;83.62;101726.08;1686718;85;22568;-84
2021/09/26 04:29:15;;;;;;;11.68;6.92;;;;;;;9.32;83.71;101726.55;1676166;85;21089;-84
2021/09/26 04:31:42;;;;;;;14.00;7.20;;;;;;;9.37;83.73;101729.82;1682132;84;21560;-84
2021/09/26 04:34:09;;;;;;;14.90;6.80;;;;;;;9.38;83.68;101733.80;1678770;83;21043;-85
2021/09/26 04:36:36;;;;;;;13.50;6.37;;;;;;;9.41;83.68;101733.95;1681538;83;21110;-85
2021/09/26 04:39:05;;;;;;;9.93;6.60;;;;;;;9.44;83.72;101734.11;1680360;85;21834;-85
2021/09/26 04:42:06;;;;;;;11.60;6.03;;;;;;;9.47;83.71;101736.86;1681277;83;21114;-87
2021/09/26 04:45:18;;;;;;;12.47;6.28;;;;;;;9.53;83.94;101736.23;1595417;89;21181;-87
2021/09/26 04:48:04;;;;;;;14.35;6.95;;;;;;;9.61;83.99;101732.63;1510839;94;21611;-87
2021/09/26 04:50:32;;;;;;;12.43;6.62;;;;;;;9.71;84.09;101740.11;1494053;94;21383;-87
2021/09/26 04:52:59;;;;;;;10.40;6.28;;;;;;;9.77;84.02;101744.32;1507738;94;21814;-86
2021/09/26 04:55:27;;;;;;;19.12;8.95;;;;;;;9.85;84.00;101750.84;1500605;95;21130;-86
2021/09/26 04:57:54;;;;;;;16.07;7.72;;;;;;;9.95;83.98;101751.20;1500576;95;21158;-86
2021/09/26 05:00:22;;;;;;;11.28;6.42;;;;;;;10.04;83.83;101752.92;1500617;95;21181;-86
2021/09/26 05:02:48;;;;;;;14.00;6.28;;;;;;;10.15;83.71;101761.28;1500811;95;21274;-85
2021/09/26 05:05:15;;;;;;;14.70;6.75;;;;;;;10.24;83.45;101759.94;1500587;95;21921;-86
2021/09/26 05:07:42;;;;;;;10.35;6.45;;;;;;;10.34;83.29;101765.63;1500103;95;21156;-86
2021/09/26 05:10:10;;;;;;;12.07;6.47;;;;;;;10.44;83.23;101765.20;1500207;94;21733;-85
2021/09/26 05:12:38;;;;;;;11.38;6.87;;;;;;;10.57;83.45;101763.98;1500290;95;21137;-85
2021/09/26 05:15:05;;;;;;;13.08;7.85;;;;;;;10.72;83.54;101762.36;1501337;94;21121;-85
2021/09/26 05:17:32;;;;;;;11.08;7.22;;;;;;;10.85;83.59;101771.27;1493967;94;21814;-85
2021/09/26 05:19:59;;;;;;;10.98;7.00;;;;;;;10.99;83.58;101775.33;1512529;94;21157;-85
2021/09/26 05:22:27;;;;;;;11.50;6.83;;;;;;;11.10;83.57;101778.39;1512668;94;21211;-84
2021/09/26 05:24:56;;;;;;;11.00;6.65;;;;;;;11.23;83.39;101783.73;1569303;88;21126;-84
2021/09/26 05:27:23;;;;;;;8.48;5.95;;;;;;;11.28;82.96;101785.70;1619903;88;21126;-84
2021/09/26 05:29:50;;;;;;;12.23;6.17;;;;;;;11.33;82.76;101787.19;1620043;88;21802;-86
2021/09/26 05:32:16;;;;;;;9.70;6.50;;;;;;;11.37;82.64;101790.84;1619806;87;21635;-86
2021/09/26 05:34:44;;;;;;;6.50;5.50;;;;;;;11.40;82.53;101792.29;1631939;86;21102;-85
2021/09/26 05:37:11;;;;;;;7.50;5.62;;;;;;;11.41;82.49;101788.40;1656336;84;21052;-84
2021/09/26 05:39:39;;;;;;;8.50;5.90;;;;;;;11.44;82.53;101784.97;1656426;84;21724;-85
2021/09/26 05:42:06;;;;;;;9.65;6.55;;;;;;;11.50;82.56;101797.05;1656635;86;22602;-85
2021/09/26 05:44:35;;;;;;;8.33;5.75;;;;;;;11.59;82.58;101804.43;1656478;84;21032;-84
2021/09/26 05:47:02;;;;;;;10.35;5.40;;;;;;;11.66;82.54;101804.71;1656419;85;21103;-84
2021/09/26 05:49:33;;;;;;;8.15;5.80;;;;;;;11.75;82.39;101803.25;1656646;86;21078;-85
2021/09/26 05:52:02;;;;;;;9.75;6.33;;;;;;;11.84;82.38;101799.23;1656665;86;21565;-85
2021/09/26 05:54:31;;;;;;;10.60;6.35;;;;;;;11.92;82.22;101807.86;1678765;85;21291;-84
2021/09/26 05:56:59;;;;;;;11.75;6.47;;;;;;;11.99;82.13;101801.97;1674238;84;20991;-86
2021/09/26 05:59:31;;;;;;;7.40;5.60;;;;;;;12.10;82.15;101805.00;1683490;85;21081;-86
2021/09/26 06:01:58;;;;;;;8.83;5.53;;;;;;;12.22;82.15;101807.66;1663307;84;21272;-85
2021/09/26 06:04:26;;;;;;;7.75;5.65;;;;;;;12.32;81.78;101810.62;1671768;82;21521;-84
2021/09/26 06:06:53;;;;;;;7.90;5.65;;;;;;;12.38;81.58;101811.71;1656434;86;21954;-84
2021/09/26 06:09:20;;;;;;;7.80;5.58;;;;;;;12.45;81.54;101811.52;1656376;85;21818;-84
2021/09/26 06:11:47;;;;;;;8.20;5.55;;;;;;;12.56;81.56;101810.56;1657479;83;21087;-85
2021/09/26 06:14:24;;;;;;;11.68;5.50;;;;;;;12.65;81.34;101810.88;1645301;87;21121;-85
2021/09/26 06:16:55;;;;;;;10.23;5.75;;;;;;;12.72;81.16;101819.45;1645440;87;21177;-85
2021/09/26 06:19:24;;;;;;;8.50;5.60;;;;;;;12.82;81.24;101820.25;1625191;87;21830;-85
2021/09/26 06:21:51;;;;;;;10.13;5.70;;;;;;;12.88;80.83;101822.20;1645662;87;21091;-85
2021/09/26 06:24:22;;;;;;;8.05;5.70;;;;;;;12.91;80.71;101836.81;1645455;87;21082;-85
2021/09/26 06:26:48;;;;;;;9.48;5.72;;;;;;;12.94;80.53;101840.00;1645944;87;21098;-85
2021/09/26 06:29:15;;;;;;;9.88;5.55;;;;;;;12.96;80.43;101836.98;1646014;87;21102;-85
2021/09/26 06:31:42;;;;;;;9.65;5.28;;;;;;;13.01;80.41;101834.96;1646060;87;21816;-87
2021/09/26 06:34:11;;;;;;;5.97;4.67;;;;;;;13.02;80.23;101838.49;1645288;87;21087;-82
2021/09/26 06:36:38;;;;;;;8.95;5.85;;;;;;;13.07;80.38;101838.66;1645449;86;21123;-84
2021/09/26 06:39:05;;;;;;;5.45;4.50;;;;;;;13.14;80.31;101841.55;1645553;86;21122;-83
2021/09/26 06:41:32;;;;;;;5.60;4.10;;;;;;;13.17;80.15;101850.87;1645319;87;21110;-85
2021/09/26 06:43:59;;;;;;;7.50;4.37;;;;;;;13.26;80.15;101844.10;1645406;87;21892;-84
2021/09/26 06:46:28;;;;;;;7.20;4.45;;;;;;;13.29;80.03;101846.42;1645528;86;21110;-84
2021/09/26 06:48:55;;;;;;;8.73;4.60;;;;;;;13.39;80.00;101852.48;1656804;85;21564;-84
2021/09/26 06:51:21;;;;;;;7.60;4.70;;;;;;;13.44;79.79;101847.76;1706578;84;21071;-84
2021/09/26 06:53:49;;;;;;;5.47;3.92;;;;;;;13.50;79.69;101851.50;1706584;83;21189;-84
2021/09/26 06:56:19;;;;;;;7.78;4.00;;;;;;;13.60;79.75;101853.56;1706052;83;21891;-84
2021/09/26 06:58:46;;;;;;;6.67;4.25;;;;;;;13.69;79.48;101859.56;1706526;84;21052;-84
2021/09/26 07:01:13;;;;;;;8.83;4.25;;;;;;;13.78;79.41;101861.17;1706612;84;21078;-84
2021/09/26 07:03:40;;;;;;;7.45;3.55;;;;;;;13.93;79.46;101870.42;1706293;84;21103;-84
2021/09/26 07:06:23;;;;;;;11.30;4.37;;;;;;;13.99;79.15;101870.16;1706923;84;21095;-88
2021/09/26 07:08:51;;;;;;;7.90;4.50;;;;;;;14.06;78.98;101869.92;1706756;84;21855;-85
2021/09/26 07:11:20;;;;;;;6.72;4.03;;;;;;;14.10;78.82;101870.91;1683198;83;21110;-88
2021/09/26 07:13:50;;;;;;;6.55;4.40;;;;;;;14.06;78.50;101863.70;1720168;82;21332;-88
2021/09/26 07:16:17;;;;;;;7.58;4.90;;;;;;;14.08;78.68;101867.32;1719640;82;21114;-83
2021/09/26 07:18:44;;;;;;;7.12;4.15;;;;;;;14.16;78.80;101871.07;1719900;83;21085;-84
2021/09/26 07:21:13;;;;;;;6.60;4.28;;;;;;;14.20;78.65;101868.54;1718755;83;21812;-83
2021/09/26 07:23:39;;;;;;;7.17;4.20;;;;;;;14.29;78.63;101874.97;1713870;82;21737;-84
2021/09/26 07:26:09;;;;;;;8.90;4.53;;;;;;;14.36;78.68;101874.28;1713803;82;21158;-84
2021/09/26 07:28:34;;;;;;;9.08;4.42;;;;;;;14.42;78.45;101879.74;1713525;82;21126;-83
2021/09/26 07:31:01;;;;;;;6.80;4.30;;;;;;;14.52;78.44;101881.77;1713700;83;21051;-85
2021/09/26 07:33:28;;;;;;;7.58;3.92;;;;;;;14.64;78.51;101884.31;1714053;83;21760;-83
2021/09/26 07:35:55;;;;;;;7.08;4.33;;;;;;;14.74;78.42;101885.92;1713918;83;21166;-81
2021/09/26 07:38:21;;;;;;;6.20;3.75;;;;;;;14.85;78.24;101898.14;1713766;83;21016;-82
2021/09/26 07:40:48;;;;;;;6.72;3.75;;;;;;;14.94;77.97;101897.05;1714272;82;21035;-83
2021/09/26 07:43:15;;;;;;;6.72;3.87;;;;;;;15.01;77.90;101899.41;1713394;82;21586;-83
2021/09/26 07:45:42;;;;;;;10.50;4.12;;;;;;;15.11;77.83;101900.56;1713773;83;21873;-82
2021/09/26 07:48:08;;;;;;;6.50;3.27;;;;;;;15.22;77.77;101900.80;1714346;83;21110;-82
2021/09/26 07:50:35;;;;;;;12.63;3.83;;;;;;;15.35;77.75;101895.84;1714625;82;21081;-84
2021/09/26 07:53:02;;;;;;;8.65;3.52;;;;;;;15.49;77.46;101897.48;1714472;83;21158;-82
2021/09/26 07:55:29;;;;;;;6.85;3.60;;;;;;;15.57;77.29;101904.30;1714305;83;21580;-83
2021/09/26 07:57:56;;;;;;;9.65;3.75;;;;;;;15.62;77.01;101905.74;1714356;82;21764;-84
2021/09/26 08:00:22;;;;;;;9.45;5.10;;;;;;;15.66;76.86;101910.25;1714236;83;21023;-83
2021/09/26 08:02:52;;;;;;;9.28;3.52;;;;;;;15.61;76.52;101912.78;1714340;82;21094;-84
2021/09/26 08:05:18;;;;;;;10.13;4.15;;;;;;;15.56;76.45;101913.13;1712422;83;21632;-83
2021/09/26 08:07:47;;;;;;;12.07;4.05;;;;;;;15.55;76.43;101917.96;1714352;83;21118;-83
2021/09/26 08:10:14;;;;;;;16.20;3.80;;;;;;;15.60;76.77;101913.66;1730053;82;21790;-83
2021/09/26 08:12:46;;;;;;;12.88;4.30;;;;;;;15.67;76.68;101915.60;1685643;83;21651;-83
2021/09/26 08:15:13;;;;;;;11.48;3.47;;;;;;;15.75;76.65;101911.83;1714151;83;21532;-83
2021/09/26 08:17:40;;;;;;;8.15;3.70;;;;;;;15.87;76.72;101918.71;1715105;82;21050;-83
2021/09/26 08:20:08;;;;;;;9.20;3.25;;;;;;;16.02;76.63;101919.92;1715106;83;21426;-83
2021/09/26 08:22:35;;;;;;;15.10;3.42;;;;;;;16.13;76.39;101907.31;1715106;83;21253;-83
2021/09/26 08:25:03;;;;;;;9.65;3.15;;;;;;;16.29;76.03;101912.52;1715061;83;21559;-84
2021/09/26 08:27:30;;;;;;;8.23;3.60;;;;;;;16.35;75.49;101922.79;1715533;83;21042;-83
2021/09/26 08:29:59;;;;;;;9.43;3.60;;;;;;;16.40;75.39;101918.47;1714963;83;21089;-83
2021/09/26 08:32:27;;;;;;;8.90;3.47;;;;;;;16.49;75.38;101907.58;1715465;83;21069;-83
2021/09/26 08:34:53;;;;;;;9.15;3.45;;;;;;;16.61;75.10;101912.25;1715243;83;22574;-83
2021/09/26 08:37:24;;;;;;;10.40;3.50;;;;;;;16.73;75.20;101918.22;1715325;83;21018;-83
2021/09/26 08:39:49;;;;;;;12.25;3.35;;;;;;;16.84;74.96;101920.67;1714487;82;21089;-83
2021/09/26 08:42:16;;;;;;;11.50;3.40;;;;;;;16.98;74.42;101924.89;1715466;83;21077;-83
2021/09/26 08:44:42;;;;;;;8.18;3.25;;;;;;;17.04;74.16;101926.36;1715490;83;21582;-83
2021/09/26 08:47:09;;;;;;;7.67;3.05;;;;;;;17.16;73.98;101917.67;1715426;83;21850;-83
2021/09/26 08:49:36;;;;;;;9.53;3.40;;;;;;;17.26;73.84;101920.05;1715367;82;21503;-83
2021/09/26 08:52:03;;;;;;;9.80;2.42;;;;;;;17.32;73.59;101923.24;1715382;83;21058;-83
2021/09/26 08:54:33;;;;;;;10.32;2.92;;;;;;;17.44;73.68;101919.01;1715443;83;21090;-83
2021/09/26 08:56:59;;;;;;;11.35;2.92;;;;;;;17.57;73.11;101924.09;1685102;83;21848;-83
2021/09/26 08:59:26;;;;;;;10.13;2.65;;;;;;;17.69;72.12;101928.24;1710207;83;21818;-83
2021/09/26 09:01:53;;;;;;;7.60;2.62;;;;;;;17.90;72.33;101922.80;1700915;84;21071;-83
2021/09/26 09:04:34;;;;;;;6.42;2.17;;;;;;;18.13;72.30;101922.20;1701801;84;21067;-83
2021/09/26 09:07:04;;;;;;;9.43;2.40;;;;;;;18.38;71.76;101922.96;1701544;84;21095;-83
2021/09/26 09:09:31;;;;;;;8.40;2.42;;;;;;;18.56;71.35;101923.62;1701438;84;21086;-83
2021/09/26 09:12:04;;;;;;;7.42;2.42;;;;;;;18.69;70.70;101932.61;1701351;83;21777;-83
2021/09/26 09:14:59;;;;;;;8.65;2.67;;;;;;;18.73;69.69;101931.80;1701373;84;21082;-82
2021/09/26 09:17:36;;;;;;;7.42;2.02;;;;;;;18.56;68.63;101926.28;1701601;84;21675;-82
2021/09/26 09:20:27;;;;;;;6.03;2.00;;;;;;;18.39;68.30;101929.18;1701507;84;21106;-83
2021/09/26 09:23:11;;;;;;;7.75;2.60;;;;;;;18.28;68.29;101926.38;1701538;84;21583;-83
2021/09/26 09:25:47;;;;;;;17.67;2.90;;;;;;;18.22;68.16;101930.31;1701781;84;21396;-85
2021/09/26 09:28:20;;;;;;;9.13;2.30;;;;;;;18.14;68.10;101929.33;1701635;83;21016;-82
2021/09/26 09:31:00;;;;;;;9.58;2.22;;;;;;;18.05;68.06;101926.10;1701581;82;21605;-84
2021/09/26 09:33:42;;;;;;;5.75;1.90;;;;;;;17.96;68.13;101930.89;1701673;83;21079;-83
2021/09/26 09:36:30;;;;;;;13.78;3.02;;;;;;;17.87;68.14;101928.10;1676224;83;21059;-82
2021/09/26 09:38:59;;;;;;;9.95;2.30;;;;;;;17.83;68.40;101923.13;1701383;84;23140;-83
2021/09/26 09:41:42;;;;;;;7.92;1.90;;;;;;;17.84;68.15;101928.94;1701457;83;21486;-83
2021/09/26 09:44:10;;;;;;;;;;;;;;;17.85;68.25;101928.52;1704269;84;21274;-83
2021/09/26 09:46:46;;;;;;;9.93;2.25;;;;;;;17.84;67.97;101930.27;1701637;83;21373;-83
2021/09/26 09:49:22;;;;;;;11.65;3.77;;;;;;;17.80;67.64;101927.52;1701824;84;21094;-82
2021/09/26 09:51:59;;;;;;;12.45;2.35;;;;;;;17.80;67.50;101926.19;1701815;83;21775;-83
2021/09/26 09:54:35;;;;;;;11.30;2.58;;;;;;;17.85;67.53;101935.18;1701423;84;21053;-82
2021/09/26 09:57:14;;;;;;;8.50;2.30;;;;;;;17.86;67.21;101933.84;1701592;84;21723;-83
2021/09/26 09:59:43;;;;;;;8.45;2.35;;;;;;;17.89;67.35;101931.68;1679442;84;21079;-83
2021/09/26 10:02:10;;;;;;;8.25;2.60;;;;;;;17.88;67.31;101931.20;1701537;84;21094;-82
2021/09/26 10:04:41;;;;;;;9.45;3.35;;;;;;;17.91;67.32;101937.03;1701585;84;21793;-83
2021/09/26 10:07:24;;;;;;;9.15;2.30;;;;;;;17.91;67.12;101935.70;1701480;84;21052;-83
2021/09/26 10:09:51;;;;;;;11.50;3.42;;;;;;;17.93;67.18;101937.95;1700472;83;21043;-82
2021/09/26 10:12:29;;;;;;;8.98;1.98;;;;;;;17.96;67.10;101935.30;1701339;84;21094;-83
2021/09/26 10:15:01;;;;;;;10.08;2.75;;;;;;;17.97;66.97;101934.45;1701552;84;21541;-82
2021/09/26 10:17:28;;;;;;;10.40;2.40;;;;;;;17.96;66.61;101938.89;1701372;83;22061;-83
2021/09/26 10:19:55;;;;;;;7.10;2.33;;;;;;;17.97;66.54;101937.99;1701227;83;21071;-83
2021/09/26 10:22:22;;;;;;;9.10;2.20;;;;;;;17.99;66.51;101940.69;1701464;84;21047;-83
2021/09/26 10:24:57;;;;;;;12.82;2.35;;;;;;;17.98;66.32;101939.80;1701484;84;21101;-83
2021/09/26 10:27:24;;;;;;;6.47;2.22;;;;;;;17.97;66.38;101938.44;1701579;84;21086;-83
2021/09/26 10:30:00;;;;;;;10.30;2.67;;;;;;;17.97;66.30;101942.44;1679511;84;21071;-83
2021/09/26 10:32:29;;;;;;;10.50;2.50;;;;;;;17.95;66.09;101942.41;1677429;84;21101;-83
2021/09/26 10:35:01;;;;;;;7.50;1.92;;;;;;;17.93;65.93;101943.27;1700977;84;21526;-83
2021/09/26 10:37:28;;;;;;;11.95;3.10;;;;;;;17.88;65.82;101939.20;1680172;84;21098;-83
2021/09/26 10:39:55;;;;;;;7.85;2.58;;;;;;;17.88;65.96;101932.09;1701522;83;21079;-83
2021/09/26 10:42:24;;;;;;;7.42;2.42;;;;;;;17.93;65.84;101929.95;1701406;84;22414;-83
2021/09/26 10:44:55;;;;;;;9.73;2.33;;;;;;;17.95;65.73;101929.53;1701490;84;21210;-83
2021/09/26 10:47:23;;;;;;;12.23;4.20;;;;;;;18.00;65.71;101929.14;1701688;83;21008;-83
2021/09/26 10:49:55;;;;;;;11.78;2.98;;;;;;;18.01;65.59;101926.50;1701495;84;21616;-83
2021/09/26 10:52:35;;;;;;;8.00;3.05;;;;;;;18.10;65.60;101931.51;1701518;83;21067;-83
2021/09/26 10:55:27;;;;;;;10.82;3.70;;;;;;;18.19;65.40;101927.63;1701518;84;21869;-83
2021/09/26 10:58:07;;;;;;;45.38;23.62;;;;;;;18.25;65.40;101927.70;1701270;84;21083;-83
2021/09/26 11:00:38;;;;;;;56.35;29.63;;;;;;;18.38;65.31;101925.63;1701460;83;21611;-83
2021/09/26 11:03:14;;;;;;;22.20;9.30;;;;;;;18.54;65.08;101932.45;1701316;83;21134;-83
2021/09/26 11:05:46;;;;;;;13.48;4.80;;;;;;;18.63;64.58;101924.11;1701488;84;21778;-83
2021/09/26 11:08:27;;;;;;;8.80;2.80;;;;;;;18.67;64.52;101930.38;1701511;84;21947;-82
2021/09/26 11:10:58;;;;;;;16.17;6.30;;;;;;;18.69;63.89;101934.39;1701630;84;21829;-83
2021/09/26 11:13:36;;;;;;;18.32;9.98;;;;;;;18.57;63.54;101932.50;1701593;83;21055;-83
2021/09/26 11:16:19;;;;;;;14.98;8.40;;;;;;;18.44;63.62;101923.47;1701210;82;21098;-83
2021/09/26 11:18:56;;;;;;;10.88;4.78;;;;;;;18.39;64.00;101934.09;1701262;84;21719;-83
2021/09/26 11:21:43;;;;;;;9.08;3.30;;;;;;;18.50;64.22;101930.20;1701580;83;22526;-83
2021/09/26 11:24:20;;;;;;;12.07;2.42;;;;;;;18.59;64.10;101932.08;1701212;84;21091;-83
2021/09/26 11:27:08;;;;;;;9.55;2.62;;;;;;;18.63;63.93;101931.23;1701531;84;21604;-83
2021/09/26 11:29:43;;;;;;;8.00;2.45;;;;;;;18.68;63.86;101928.63;1701260;84;21143;-83
2021/09/26 11:32:28;;;;;;;8.13;2.15;;;;;;;18.81;63.53;101922.12;1701304;83;21091;-83
2021/09/26 11:35:00;;;;;;;9.78;2.90;;;;;;;18.86;62.99;101918.59;1701511;84;21780;-82
2021/09/26 11:37:41;;;;;;;10.15;2.70;;;;;;;18.77;62.73;101918.02;1701080;84;21067;-83